FNCA

Details ICAO FNCA (CAB)
Name CABINDA
Region Angola
Timezone Africa/Luanda (UTC+1.0)
Plans Departing 21
Arriving 21
Stats Elevation 66 ft / 20 m (AMSL)
Location -5.596992° 12.188351°
Runways 1
Magnetic Variation 2.620° W
Sunrise 2018-05-25 05:14:37 UTC / 2018-05-25 06:14:37 Local
Sunset 2018-05-25 17:04:37 UTC / 2018-05-25 18:04:37 Local
Advertisement - Login to hide

Runways

ID Width Length Bearing (true) Bearing (mag) Surface Threshold Offset Overrun Length
01 98 ft / 30 m 8,248 ft / 2,514 m 359.08° 1.70° Asphalt 0 ft / 0 m 95 ft / 29 m
19 98 ft / 30 m 8,248 ft / 2,514 m 179.08° 181.70° Asphalt 0 ft / 0 m 135 ft / 41 m

Map

Weather


0- 5 10 15 20 25 30 35+ Temperature / ° C

Clouds and Precipitation
Forecast for 2018-05-25 06:00 UTC. Updated 2 hours ago

Ground ~20,000 ft ~40,000 ft Winds

METAR

FNCA 250600Z 16005KT 9000 BKN020 24/22 Q1012

TAF

Not found

Frequencies

Tower 118.30 MHz AFIS
Warning: Do not use this data for real-world aviation or navigation. No guarantee of current accuracy is given.